Climatologie pour Saint-Brevin les Pins
Jour • Résumé pour janvier 24, 2017 Système :  Métrique    Anglais   Mixte
« - 1 jour
+ 1 jour »
Jour Semaine Mois Année Personnalisé
  Maximum : Minimum : Moyenne :
Température sous abri : 9.2 °C -5.4 °C -0 °C
Point de rosée : 2.2 °C -6.3 °C -2.7 °C
Humidité : 96 % 47 % 84 %
Vitesse du vent : 8.0 km/h 0.0 km/h 0.6 km/h
Rafale : 8.0 km/h - -
Direction :- - ENE
Pression : 1030.4 hPa 1027.3 hPa -
Précipitations : 0.0 mm    
Historical Graphs
 
 
Tableau de données pour janvier 24, 2017
Heure Tempé Pt rosée Pression Vent Vitesse Rafale Humidité Taux pluie (/hr) Soleil
00:00 -2.6 °C -3.8 °C 1027.7 hPa Calm   3.2 km/h 91 % 0.0 mm 0 W/m2
00:10 -2.8 °C -4.0 °C 1027.7 hPa Calm   3.2 km/h 91 % 0.0 mm 0 W/m2
00:15 -2.8 °C -4.0 °C 1027.7 hPa Calm     91 % 0.0 mm 0 W/m2
00:20 -3.1 °C -4.3 °C 1027.7 hPa Calm   1.6 km/h 91 % 0.0 mm 0 W/m2
00:25 -3.0 °C -4.1 °C 1027.7 hPa Calm   1.6 km/h 92 % 0.0 mm 0 W/m2
00:30 -2.9 °C -4.2 °C 1027.7 hPa Calm   1.6 km/h 91 % 0.0 mm 0 W/m2
00:35 -2.9 °C -4.0 °C 1027.7 hPa Calm   1.6 km/h 92 % 0.0 mm 0 W/m2
00:40 -2.8 °C -4.0 °C 1027.7 hPa Calm   1.6 km/h 91 % 0.0 mm 0 W/m2
00:45 -2.8 °C -3.9 °C 1027.3 hPa Calm   1.6 km/h 92 % 0.0 mm 0 W/m2
00:50 -2.8 °C -4.0 °C 1027.7 hPa Calm   1.6 km/h 91 % 0.0 mm 0 W/m2
00:55 -2.8 °C -4.0 °C 1027.3 hPa Calm   1.6 km/h 91 % 0.0 mm 0 W/m2
01:00 -2.7 °C -3.8 °C 1027.3 hPa Calm   1.6 km/h 92 % 0.0 mm 0 W/m2
01:05 -2.8 °C -4.1 °C 1027.3 hPa Calm   1.6 km/h 91 % 0.0 mm 0 W/m2
01:10 -3.2 °C -4.4 °C 1027.7 hPa Calm   1.6 km/h 91 % 0.0 mm 0 W/m2
01:15 -3.2 °C -4.3 °C 1027.7 hPa Calm     92 % 0.0 mm 0 W/m2
01:20 -3.3 °C -4.4 °C 1027.7 hPa Calm     92 % 0.0 mm 0 W/m2
01:25 -3.4 °C -4.5 °C 1027.7 hPa Calm     92 % 0.0 mm 0 W/m2
01:30 -3.6 °C -4.7 °C 1027.7 hPa Calm   1.6 km/h 92 % 0.0 mm 0 W/m2
01:40 -3.4 °C -4.4 °C 1027.7 hPa Calm   3.2 km/h 93 % 0.0 mm 0 W/m2
01:45 -3.6 °C -4.7 °C 1027.7 hPa Calm   3.2 km/h 92 % 0.0 mm 0 W/m2
01:50 -3.7 °C -4.8 °C 1027.7 hPa Calm   1.6 km/h 92 % 0.0 mm 0 W/m2
01:55 -3.6 °C -4.5 °C 1027.7 hPa Calm   1.6 km/h 93 % 0.0 mm 0 W/m2
02:00 -3.5 °C -4.6 °C 1027.7 hPa Calm   1.6 km/h 92 % 0.0 mm 0 W/m2
02:05 -3.7 °C -4.8 °C 1027.7 hPa Calm   1.6 km/h 92 % 0.0 mm 0 W/m2
02:10 -3.7 °C -4.8 °C 1027.7 hPa Calm   1.6 km/h 92 % 0.0 mm 0 W/m2
02:15 -3.8 °C -4.9 °C 1027.7 hPa Calm   1.6 km/h 92 % 0.0 mm 0 W/m2
02:20 -3.9 °C -4.9 °C 1027.7 hPa Calm   3.2 km/h 93 % 0.0 mm 0 W/m2
02:30 -4.1 °C -5.0 °C 1027.7 hPa Calm   3.2 km/h 93 % 0.0 mm 0 W/m2
02:35 -4.0 °C -5.0 °C 1027.7 hPa Calm   4.8 km/h 93 % 0.0 mm 0 W/m2
02:40 -3.9 °C -4.9 °C 1027.7 hPa ENE 1.6 km/h 4.8 km/h 93 % 0.0 mm 0 W/m2
02:45 -4.0 °C -5.0 °C 1028.0 hPa ENE 3.2 km/h 4.8 km/h 93 % 0.0 mm 0 W/m2
02:50 -4.0 °C -5.0 °C 1027.7 hPa Calm   4.8 km/h 93 % 0.0 mm 0 W/m2
02:55 -4.1 °C -5.0 °C 1028.0 hPa ENE 1.6 km/h 3.2 km/h 93 % 0.0 mm 0 W/m2
03:00 -4.0 °C -5.0 °C 1028.0 hPa Calm   3.2 km/h 93 % 0.0 mm 0 W/m2
03:05 -4.0 °C -5.0 °C 1028.0 hPa Calm   3.2 km/h 93 % 0.0 mm 0 W/m2
03:10 -4.3 °C -5.2 °C 1028.0 hPa ENE 1.6 km/h 1.6 km/h 93 % 0.0 mm 0 W/m2
03:15 -4.4 °C -5.4 °C 1028.0 hPa North 1.6 km/h 4.8 km/h 93 % 0.0 mm 0 W/m2
03:20 -4.4 °C -5.4 °C 1028.0 hPa Calm   4.8 km/h 93 % 0.0 mm 0 W/m2
03:25 -4.3 °C -5.2 °C 1028.0 hPa North 1.6 km/h 4.8 km/h 93 % 0.0 mm 0 W/m2
03:30 -4.2 °C -5.0 °C 1028.0 hPa North 1.6 km/h 3.2 km/h 94 % 0.0 mm 0 W/m2
03:35 -4.2 °C -5.0 °C 1028.0 hPa Calm   3.2 km/h 94 % 0.0 mm 0 W/m2
03:40 -4.2 °C -5.0 °C 1028.0 hPa Calm   3.2 km/h 94 % 0.0 mm 0 W/m2
03:45 -4.2 °C -5.0 °C 1028.0 hPa Calm   3.2 km/h 94 % 0.0 mm 0 W/m2
03:50 -4.2 °C -5.0 °C 1028.0 hPa Calm   3.2 km/h 94 % 0.0 mm 0 W/m2
03:55 -4.2 °C -5.0 °C 1028.3 hPa Calm   1.6 km/h 94 % 0.0 mm 0 W/m2
04:00 -4.3 °C -5.1 °C 1028.3 hPa Calm     94 % 0.0 mm 0 W/m2
04:05 -4.4 °C -5.2 °C 1028.3 hPa Calm     94 % 0.0 mm 0 W/m2
04:10 -4.4 °C -5.3 °C 1028.3 hPa Calm     94 % 0.0 mm 0 W/m2
04:15 -4.6 °C -5.4 °C 1028.3 hPa Calm     94 % 0.0 mm 0 W/m2
04:20 -4.6 °C -5.4 °C 1028.3 hPa Calm     94 % 0.0 mm 0 W/m2
04:25 -4.5 °C -5.3 °C 1028.3 hPa Calm     94 % 0.0 mm 0 W/m2
04:30 -4.5 °C -5.3 °C 1028.3 hPa Calm     94 % 0.0 mm 0 W/m2
04:35 -4.5 °C -5.3 °C 1028.3 hPa Calm     94 % 0.0 mm 0 W/m2
04:40 -4.4 °C -5.3 °C 1028.3 hPa Calm     94 % 0.0 mm 0 W/m2
04:50 -4.6 °C -5.4 °C 1028.3 hPa Calm     94 % 0.0 mm 0 W/m2
04:55 -4.5 °C -5.3 °C 1028.3 hPa Calm     94 % 0.0 mm 0 W/m2
05:00 -4.4 °C -5.3 °C 1028.3 hPa Calm     94 % 0.0 mm 0 W/m2
05:05 -4.5 °C -5.3 °C 1028.3 hPa Calm     94 % 0.0 mm 0 W/m2
05:10 -4.5 °C -5.3 °C 1028.3 hPa Calm     94 % 0.0 mm 0 W/m2
05:20 -4.4 °C -5.3 °C 1028.3 hPa Calm     94 % 0.0 mm 0 W/m2
05:25 -4.4 °C -5.2 °C 1028.3 hPa Calm     94 % 0.0 mm 0 W/m2
05:30 -4.4 °C -5.2 °C 1028.3 hPa Calm     94 % 0.0 mm 0 W/m2
05:35 -4.4 °C -5.3 °C 1028.3 hPa Calm     94 % 0.0 mm 0 W/m2
05:40 -4.4 °C -5.2 °C 1028.3 hPa Calm     94 % 0.0 mm 0 W/m2
05:45 -4.3 °C -5.2 °C 1028.7 hPa Calm     94 % 0.0 mm 0 W/m2
05:50 -4.4 °C -5.2 °C 1028.3 hPa Calm     94 % 0.0 mm 0 W/m2
05:55 -4.6 °C -5.4 °C 1028.3 hPa Calm     94 % 0.0 mm 0 W/m2
06:00 -4.6 °C -5.4 °C 1028.3 hPa Calm     94 % 0.0 mm 0 W/m2
06:05 -4.3 °C -5.2 °C 1028.3 hPa Calm   1.6 km/h 94 % 0.0 mm 0 W/m2
06:10 -4.2 °C -5.0 °C 1028.3 hPa Calm   1.6 km/h 94 % 0.0 mm 0 W/m2
06:15 -4.3 °C -5.1 °C 1028.3 hPa Calm   1.6 km/h 94 % 0.0 mm 0 W/m2
06:20 -4.4 °C -5.3 °C 1028.3 hPa Calm   1.6 km/h 94 % 0.0 mm 0 W/m2
06:25 -4.7 °C -5.5 °C 1028.3 hPa Calm     94 % 0.0 mm 0 W/m2
06:30 -4.4 °C -5.3 °C 1028.3 hPa Calm     94 % 0.0 mm 0 W/m2
06:35 -4.6 °C -5.4 °C 1028.3 hPa Calm     94 % 0.0 mm 0 W/m2
06:40 -4.7 °C -5.5 °C 1028.3 hPa Calm     94 % 0.0 mm 0 W/m2
06:45 -4.7 °C -5.5 °C 1028.3 hPa Calm     94 % 0.0 mm 0 W/m2
06:50 -4.8 °C -5.6 °C 1028.3 hPa Calm     94 % 0.0 mm 0 W/m2
06:55 -4.8 °C -5.6 °C 1028.3 hPa Calm     94 % 0.0 mm 0 W/m2
07:00 -4.8 °C -5.6 °C 1028.3 hPa Calm     94 % 0.0 mm 0 W/m2
07:05 -4.7 °C -5.5 °C 1028.3 hPa Calm   1.6 km/h 94 % 0.0 mm 0 W/m2
07:10 -4.4 °C -5.1 °C 1028.3 hPa Calm   1.6 km/h 95 % 0.0 mm 0 W/m2
07:15 -3.9 °C -4.6 °C 1028.3 hPa Calm   1.6 km/h 95 % 0.0 mm 0 W/m2
07:20 -4.2 °C -5.0 °C 1028.3 hPa Calm   1.6 km/h 94 % 0.0 mm 0 W/m2
07:25 -4.3 °C -5.2 °C 1028.3 hPa Calm   1.6 km/h 94 % 0.0 mm 0 W/m2
07:30 -4.5 °C -5.3 °C 1028.3 hPa Calm     94 % 0.0 mm 0 W/m2
07:35 -4.4 °C -5.3 °C 1028.3 hPa Calm   1.6 km/h 94 % 0.0 mm 0 W/m2
07:40 -4.2 °C -4.9 °C 1028.3 hPa Calm   1.6 km/h 95 % 0.0 mm 0 W/m2
07:45 -4.2 °C -5.0 °C 1028.3 hPa Calm     94 % 0.0 mm 0 W/m2
07:50 -4.4 °C -5.2 °C 1028.3 hPa Calm     94 % 0.0 mm 0 W/m2
07:55 -4.5 °C -5.3 °C 1028.7 hPa Calm     94 % 0.0 mm 0 W/m2
08:00 -4.7 °C -5.5 °C 1028.7 hPa Calm   1.6 km/h 94 % 0.0 mm 0 W/m2
08:05 -4.7 °C -5.5 °C 1028.7 hPa Calm   1.6 km/h 94 % 0.0 mm 0 W/m2
08:10 -4.9 °C -5.7 °C 1028.7 hPa Calm     94 % 0.0 mm 0 W/m2
08:15 -5.0 °C -5.8 °C 1028.7 hPa Calm     94 % 0.0 mm 0 W/m2
08:20 -5.3 °C -6.1 °C 1028.7 hPa Calm     94 % 0.0 mm 0 W/m2
08:25 -5.3 °C -6.1 °C 1028.7 hPa Calm     94 % 0.0 mm 0 W/m2
08:30 -5.3 °C -6.1 °C 1029.0 hPa Calm     94 % 0.0 mm 0 W/m2
08:35 -5.3 °C -6.0 °C 1028.7 hPa Calm     95 % 0.0 mm 0 W/m2
08:40 -5.2 °C -6.0 °C 1029.0 hPa Calm     94 % 0.0 mm 0 W/m2
08:45 -5.3 °C -6.1 °C 1029.0 hPa Calm     94 % 0.0 mm 0 W/m2
08:50 -5.4 °C -6.3 °C 1029.0 hPa Calm     94 % 0.0 mm 5 W/m2
08:55 -5.4 °C -6.1 °C 1029.0 hPa Calm     95 % 0.0 mm 7 W/m2
09:00 -5.4 °C -6.1 °C 1029.0 hPa Calm     95 % 0.0 mm 9 W/m2
09:05 -5.3 °C -6.0 °C 1029.0 hPa Calm     95 % 0.0 mm 11 W/m2
09:10 -5.2 °C -5.8 °C 1029.0 hPa Calm   1.6 km/h 95 % 0.0 mm 12 W/m2
09:15 -5.1 °C -5.7 °C 1029.3 hPa Calm   1.6 km/h 95 % 0.0 mm 14 W/m2
09:20 -5.2 °C -6.0 °C 1029.3 hPa Calm     94 % 0.0 mm 16 W/m2
09:25 -5.2 °C -6.0 °C 1029.3 hPa Calm     94 % 0.0 mm 18 W/m2
09:30 -4.9 °C -5.6 °C 1029.3 hPa Calm     95 % 0.0 mm 19 W/m2
09:35 -4.7 °C -5.4 °C 1029.3 hPa Calm   1.6 km/h 95 % 0.0 mm 21 W/m2
09:40 -4.5 °C -5.2 °C 1029.3 hPa Calm   1.6 km/h 95 % 0.0 mm 23 W/m2
09:45 -4.2 °C -4.9 °C 1029.3 hPa Calm   1.6 km/h 95 % 0.0 mm 23 W/m2
09:50 -4.0 °C -4.7 °C 1029.3 hPa Calm     95 % 0.0 mm 25 W/m2
09:55 -3.7 °C -4.4 °C 1029.3 hPa Calm   1.6 km/h 95 % 0.0 mm 25 W/m2
10:00 -3.3 °C -4.0 °C 1029.3 hPa Calm   1.6 km/h 95 % 0.0 mm 26 W/m2
10:05 -2.8 °C -3.5 °C 1029.3 hPa Calm   3.2 km/h 95 % 0.0 mm 26 W/m2
10:10 -1.9 °C -2.5 °C 1029.3 hPa Calm   3.2 km/h 96 % 0.0 mm 28 W/m2
10:15 -1.5 °C -2.2 °C 1029.3 hPa North 1.6 km/h 3.2 km/h 95 % 0.0 mm 30 W/m2
10:20 -1.1 °C -1.8 °C 1029.7 hPa Calm   4.8 km/h 95 % 0.0 mm 30 W/m2
10:25 -0.6 °C -1.4 °C 1029.7 hPa NE 1.6 km/h 4.8 km/h 94 % 0.0 mm 100 W/m2
10:30 -0.1 °C -1.2 °C 1029.7 hPa NE 1.6 km/h 4.8 km/h 92 % 0.0 mm 169 W/m2
10:35 0.3 °C -1.0 °C 1029.7 hPa NE 4.8 km/h 4.8 km/h 91 % 0.0 mm 236 W/m2
10:40 0.6 °C -1.0 °C 1029.7 hPa ENE 3.2 km/h 6.4 km/h 89 % 0.0 mm 230 W/m2
10:50 1.2 °C -0.8 °C 1029.7 hPa ENE 3.2 km/h 4.8 km/h 87 % 0.0 mm 246 W/m2
10:55 1.3 °C -0.6 °C 1030.0 hPa Calm   4.8 km/h 87 % 0.0 mm 257 W/m2
11:00 1.7 °C -0.4 °C 1030.0 hPa East 3.2 km/h 4.8 km/h 86 % 0.0 mm 265 W/m2
11:05 2.0 °C -0.3 °C 1030.0 hPa NE 3.2 km/h 8.0 km/h 85 % 0.0 mm 274 W/m2
11:10 2.2 °C -0.3 °C 1030.0 hPa ENE 3.2 km/h 8.0 km/h 84 % 0.0 mm 283 W/m2
11:15 2.4 °C 0.0 °C 1030.0 hPa ENE 3.2 km/h 4.8 km/h 84 % 0.0 mm 292 W/m2
11:20 2.7 °C 0.1 °C 1030.0 hPa Calm   4.8 km/h 83 % 0.0 mm 299 W/m2
11:25 3.1 °C 0.3 °C 1030.0 hPa ESE 1.6 km/h 6.4 km/h 82 % 0.0 mm 306 W/m2
11:30 3.4 °C 0.3 °C 1030.0 hPa ESE 3.2 km/h 6.4 km/h 80 % 0.0 mm 313 W/m2
11:35 3.6 °C 0.3 °C 1030.4 hPa ESE 3.2 km/h 4.8 km/h 79 % 0.0 mm 318 W/m2
11:40 3.9 °C 0.6 °C 1030.4 hPa ESE 3.2 km/h 4.8 km/h 79 % 0.0 mm 325 W/m2
11:45 4.1 °C 0.6 °C 1030.4 hPa ESE 1.6 km/h 4.8 km/h 78 % 0.0 mm 206 W/m2
11:50 4.3 °C 0.7 °C 1030.4 hPa ESE 1.6 km/h 3.2 km/h 77 % 0.0 mm 336 W/m2
11:55 4.6 °C 0.9 °C 1030.4 hPa Calm   3.2 km/h 77 % 0.0 mm 341 W/m2
12:00 4.7 °C 0.8 °C 1030.4 hPa Calm   3.2 km/h 76 % 0.0 mm 346 W/m2
12:05 4.9 °C 0.9 °C 1030.4 hPa Calm   3.2 km/h 75 % 0.0 mm 350 W/m2
12:10 5.1 °C 0.8 °C 1030.4 hPa Calm   3.2 km/h 74 % 0.0 mm 355 W/m2
12:15 5.4 °C 0.9 °C 1030.4 hPa Calm   3.2 km/h 73 % 0.0 mm 360 W/m2
12:20 5.5 °C 1.2 °C 1030.4 hPa NE 4.8 km/h 8.0 km/h 74 % 0.0 mm 364 W/m2
12:25 5.6 °C 1.1 °C 1030.4 hPa Calm   8.0 km/h 73 % 0.0 mm 362 W/m2
12:30 5.9 °C 1.2 °C 1030.4 hPa Calm   4.8 km/h 72 % 0.0 mm 369 W/m2
12:35 6.1 °C 1.4 °C 1030.4 hPa Calm   8.0 km/h 72 % 0.0 mm 369 W/m2
12:40 6.3 °C 1.7 °C 1030.4 hPa Calm   8.0 km/h 72 % 0.0 mm 373 W/m2
12:45 6.3 °C 1.5 °C 1030.4 hPa ENE 3.2 km/h 6.4 km/h 71 % 0.0 mm 376 W/m2
12:50 6.3 °C 1.3 °C 1030.4 hPa ENE 1.6 km/h 6.4 km/h 70 % 0.0 mm 373 W/m2
12:55 6.3 °C 1.5 °C 1030.4 hPa Calm   4.8 km/h 71 % 0.0 mm 385 W/m2
13:00 6.7 °C 1.8 °C 1030.4 hPa Calm   6.4 km/h 71 % 0.0 mm 383 W/m2
13:05 6.6 °C 1.5 °C 1030.4 hPa ESE 3.2 km/h 6.4 km/h 70 % 0.0 mm 360 W/m2
13:10 7.2 °C 1.7 °C 1030.4 hPa East 3.2 km/h 6.4 km/h 68 % 0.0 mm 369 W/m2
13:15 7.1 °C 1.6 °C 1030.4 hPa ENE 3.2 km/h 6.4 km/h 68 % 0.0 mm 376 W/m2
13:20 7.3 °C 2.2 °C 1030.0 hPa NE 1.6 km/h 4.8 km/h 70 % 0.0 mm 378 W/m2
13:25 7.3 °C 1.2 °C 1030.0 hPa ENE 3.2 km/h 6.4 km/h 65 % 0.0 mm 385 W/m2
13:30 7.3 °C 2.0 °C 1030.0 hPa Calm   6.4 km/h 69 % 0.0 mm 392 W/m2
13:35 7.8 °C 1.8 °C 1030.0 hPa ENE 4.8 km/h 6.4 km/h 66 % 0.0 mm 396 W/m2
13:40 8.1 °C 2.1 °C 1029.7 hPa Calm   8.0 km/h 66 % 0.0 mm 350 W/m2
13:45 8.0 °C 1.6 °C 1029.7 hPa ENE 4.8 km/h 8.0 km/h 64 % 0.0 mm 322 W/m2
13:50 8.2 °C 1.6 °C 1029.7 hPa NE 3.2 km/h 6.4 km/h 63 % 0.0 mm 388 W/m2
13:55 8.2 °C 0.4 °C 1029.7 hPa East 4.8 km/h 6.4 km/h 58 % 0.0 mm 383 W/m2
14:00 8.3 °C 1.0 °C 1029.3 hPa Calm   4.8 km/h 60 % 0.0 mm 396 W/m2
14:05 8.2 °C 0.6 °C 1029.3 hPa East 1.6 km/h 4.8 km/h 59 % 0.0 mm 271 W/m2
14:10 8.4 °C 1.5 °C 1029.3 hPa NE 1.6 km/h 4.8 km/h 62 % 0.0 mm 278 W/m2
14:15 8.3 °C 0.8 °C 1029.3 hPa ENE 1.6 km/h 8.0 km/h 59 % 0.0 mm 334 W/m2
14:20 8.7 °C 1.1 °C 1029.3 hPa Calm   8.0 km/h 59 % 0.0 mm 297 W/m2
14:25 8.3 °C 0.5 °C 1029.3 hPa Calm   6.4 km/h 58 % 0.0 mm 269 W/m2
14:30 8.6 °C 0.1 °C 1029.0 hPa NE 3.2 km/h 6.4 km/h 55 % 0.0 mm 308 W/m2
14:35 8.7 °C 0.4 °C 1029.0 hPa NE 3.2 km/h 6.4 km/h 56 % 0.0 mm 330 W/m2
14:40 8.7 °C 0.4 °C 1029.0 hPa NE 3.2 km/h 6.4 km/h 56 % 0.0 mm 325 W/m2
14:45 8.6 °C 0.6 °C 1029.0 hPa NE 3.2 km/h 4.8 km/h 57 % 0.0 mm 323 W/m2
14:50 8.8 °C 1.3 °C 1029.0 hPa Calm   4.8 km/h 59 % 0.0 mm 316 W/m2
14:55 9.1 °C 0.7 °C 1029.0 hPa NE 3.2 km/h 6.4 km/h 56 % 0.0 mm 311 W/m2
15:00 8.9 °C 0.6 °C 1029.0 hPa East 3.2 km/h 8.0 km/h 56 % 0.0 mm 313 W/m2
15:05 9.2 °C 0.3 °C 1029.0 hPa ENE 8.0 km/h 8.0 km/h 54 % 0.0 mm 306 W/m2
15:10 9.1 °C -0.2 °C 1029.0 hPa ENE 1.6 km/h 8.0 km/h 52 % 0.0 mm 299 W/m2
15:15 9.2 °C 0.3 °C 1029.0 hPa Calm   8.0 km/h 54 % 0.0 mm 297 W/m2
15:20 8.9 °C -0.1 °C 1029.0 hPa Calm   4.8 km/h 53 % 0.0 mm 288 W/m2
15:25 9.0 °C 0.4 °C 1029.0 hPa ENE 3.2 km/h 4.8 km/h 55 % 0.0 mm 253 W/m2
15:30 9.0 °C 0.7 °C 1029.0 hPa Calm   4.8 km/h 56 % 0.0 mm 216 W/m2
15:35 8.9 °C 0.4 °C 1029.0 hPa Calm   6.4 km/h 55 % 0.0 mm 220 W/m2
15:40 9.0 °C 0.7 °C 1028.7 hPa ENE 1.6 km/h 6.4 km/h 56 % 0.0 mm 239 W/m2
15:45 9.1 °C 1.0 °C 1029.0 hPa NNE 3.2 km/h 6.4 km/h 57 % 0.0 mm 229 W/m2
15:50 9.0 °C 0.7 °C 1029.0 hPa NNE 3.2 km/h 6.4 km/h 56 % 0.0 mm 229 W/m2
15:55 8.8 °C 0.5 °C 1029.0 hPa NNE 6.4 km/h 8.0 km/h 56 % 0.0 mm 216 W/m2
16:00 8.9 °C -0.1 °C 1029.0 hPa NE 3.2 km/h 8.0 km/h 53 % 0.0 mm 202 W/m2
16:05 8.8 °C -0.3 °C 1029.0 hPa Calm   6.4 km/h 53 % 0.0 mm 195 W/m2
16:10 8.8 °C -1.9 °C 1029.0 hPa ENE 3.2 km/h 6.4 km/h 47 % 0.0 mm 185 W/m2
16:15 8.7 °C -1.4 °C 1029.0 hPa Calm   6.4 km/h 49 % 0.0 mm 178 W/m2
16:20 8.8 °C -0.5 °C 1029.0 hPa NNE 1.6 km/h 6.4 km/h 52 % 0.0 mm 165 W/m2
16:25 8.3 °C -0.7 °C 1029.0 hPa NNE 4.8 km/h 4.8 km/h 53 % 0.0 mm 155 W/m2
16:30 8.1 °C -0.4 °C 1029.0 hPa Calm   4.8 km/h 55 % 0.0 mm 141 W/m2
16:35 8.0 °C 0.0 °C 1029.0 hPa Calm   6.4 km/h 57 % 0.0 mm 51 W/m2
16:40 8.1 °C 0.0 °C 1029.0 hPa Calm   6.4 km/h 57 % 0.0 mm 47 W/m2
16:45 7.7 °C 0.0 °C 1029.0 hPa Calm   4.8 km/h 58 % 0.0 mm 51 W/m2
16:50 7.6 °C 0.1 °C 1029.0 hPa Calm   3.2 km/h 59 % 0.0 mm 53 W/m2
16:55 7.6 °C 0.0 °C 1029.0 hPa Calm   1.6 km/h 59 % 0.0 mm 51 W/m2
17:00 7.2 °C 0.4 °C 1029.0 hPa Calm   1.6 km/h 62 % 0.0 mm 46 W/m2
17:05 7.1 °C 0.3 °C 1029.0 hPa Calm   4.8 km/h 62 % 0.0 mm 39 W/m2
17:10 7.2 °C 0.2 °C 1029.0 hPa Calm   4.8 km/h 61 % 0.0 mm 33 W/m2
17:15 6.8 °C 0.1 °C 1029.0 hPa Calm   3.2 km/h 62 % 0.0 mm 32 W/m2
17:20 6.4 °C 0.1 °C 1029.0 hPa Calm   3.2 km/h 64 % 0.0 mm 26 W/m2
17:25 6.3 °C 0.0 °C 1029.0 hPa Calm   3.2 km/h 64 % 0.0 mm 26 W/m2
17:30 5.8 °C -0.1 °C 1029.0 hPa Calm   3.2 km/h 66 % 0.0 mm 23 W/m2
17:35 5.3 °C -0.1 °C 1029.0 hPa Calm   3.2 km/h 68 % 0.0 mm 19 W/m2
17:40 4.9 °C -0.3 °C 1029.0 hPa Calm     69 % 0.0 mm 16 W/m2
17:45 4.4 °C -0.2 °C 1029.0 hPa Calm     72 % 0.0 mm 14 W/m2
17:50 3.9 °C -0.3 °C 1029.0 hPa Calm     74 % 0.0 mm 9 W/m2
17:55 3.5 °C -0.5 °C 1029.0 hPa Calm     75 % 0.0 mm 7 W/m2
18:00 3.0 °C -0.6 °C 1029.0 hPa Calm     77 % 0.0 mm 0 W/m2
18:05 2.6 °C -0.7 °C 1029.0 hPa Calm     79 % 0.0 mm 0 W/m2
18:10 2.4 °C -0.7 °C 1029.0 hPa Calm     80 % 0.0 mm 0 W/m2
18:15 2.1 °C -1.0 °C 1029.0 hPa Calm     80 % 0.0 mm 0 W/m2
18:20 1.9 °C -0.9 °C 1029.0 hPa Calm     82 % 0.0 mm 0 W/m2
18:25 1.4 °C -1.3 °C 1029.0 hPa Calm     82 % 0.0 mm 0 W/m2
18:30 1.2 °C -1.3 °C 1029.0 hPa Calm     83 % 0.0 mm 0 W/m2
18:35 0.9 °C -1.5 °C 1029.0 hPa Calm     84 % 0.0 mm 0 W/m2
18:40 0.8 °C -1.3 °C 1029.0 hPa Calm     86 % 0.0 mm 0 W/m2
18:45 0.7 °C -1.4 °C 1029.0 hPa Calm     86 % 0.0 mm 0 W/m2
18:50 0.4 °C -1.5 °C 1029.0 hPa Calm     87 % 0.0 mm 0 W/m2
18:55 0.2 °C -1.7 °C 1029.0 hPa Calm     87 % 0.0 mm 0 W/m2
19:00 0.1 °C -1.9 °C 1029.0 hPa Calm     87 % 0.0 mm 0 W/m2
19:10 0.1 °C -1.7 °C 1029.0 hPa Calm     88 % 0.0 mm 0 W/m2
19:15 -0.1 °C -1.8 °C 1029.0 hPa Calm     88 % 0.0 mm 0 W/m2
19:20 -0.1 °C -1.9 °C 1029.0 hPa Calm     88 % 0.0 mm 0 W/m2
19:25 -0.1 °C -1.8 °C 1029.0 hPa Calm     88 % 0.0 mm 0 W/m2
19:30 -0.3 °C -2.0 °C 1029.0 hPa Calm     88 % 0.0 mm 0 W/m2
19:35 -0.4 °C -2.0 °C 1029.0 hPa Calm     89 % 0.0 mm 0 W/m2
19:40 -0.5 °C -2.1 °C 1029.0 hPa Calm     89 % 0.0 mm 0 W/m2
19:45 -0.4 °C -2.2 °C 1029.0 hPa Calm     88 % 0.0 mm 0 W/m2
19:50 -0.8 °C -2.4 °C 1029.0 hPa Calm     89 % 0.0 mm 0 W/m2
19:55 -0.7 °C -2.3 °C 1029.0 hPa Calm     89 % 0.0 mm 0 W/m2
20:00 -0.7 °C -2.3 °C 1029.0 hPa Calm     89 % 0.0 mm 0 W/m2
20:10 -1.1 °C -2.5 °C 1029.0 hPa Calm     90 % 0.0 mm 0 W/m2
20:15 -1.3 °C -2.8 °C 1029.0 hPa Calm     90 % 0.0 mm 0 W/m2
20:20 -1.3 °C -2.8 °C 1029.0 hPa Calm     90 % 0.0 mm 0 W/m2
20:25 -1.4 °C -2.8 °C 1029.0 hPa Calm     90 % 0.0 mm 0 W/m2
20:30 -1.5 °C -2.8 °C 1029.0 hPa Calm     91 % 0.0 mm 0 W/m2
20:35 -1.6 °C -2.9 °C 1029.0 hPa Calm     91 % 0.0 mm 0 W/m2
20:40 -1.7 °C -2.9 °C 1029.0 hPa Calm     91 % 0.0 mm 0 W/m2
20:45 -1.8 °C -3.1 °C 1029.0 hPa Calm     91 % 0.0 mm 0 W/m2
20:50 -1.7 °C -2.9 °C 1029.0 hPa Calm     92 % 0.0 mm 0 W/m2
20:55 -1.6 °C -2.7 °C 1029.0 hPa Calm     92 % 0.0 mm 0 W/m2
21:00 -1.4 °C -2.6 °C 1029.0 hPa Calm     92 % 0.0 mm 0 W/m2
21:05 -1.5 °C -2.8 °C 1029.0 hPa Calm     91 % 0.0 mm 0 W/m2
21:10 -1.6 °C -2.8 °C 1029.0 hPa Calm     91 % 0.0 mm 0 W/m2
21:15 -1.6 °C -2.9 °C 1029.0 hPa Calm     91 % 0.0 mm 0 W/m2
21:20 -1.7 °C -2.8 °C 1029.0 hPa Calm     92 % 0.0 mm 0 W/m2
21:25 -1.8 °C -3.1 °C 1029.0 hPa Calm     91 % 0.0 mm 0 W/m2
21:30 -1.9 °C -3.1 °C 1029.0 hPa Calm     92 % 0.0 mm 0 W/m2
21:35 -2.1 °C -3.2 °C 1029.0 hPa Calm     92 % 0.0 mm 0 W/m2
21:40 -2.1 °C -3.2 °C 1029.0 hPa Calm     92 % 0.0 mm 0 W/m2
21:45 -2.2 °C -3.3 °C 1029.0 hPa Calm     92 % 0.0 mm 0 W/m2
21:50 -2.2 °C -3.2 °C 1029.0 hPa Calm     93 % 0.0 mm 0 W/m2
21:55 -2.3 °C -3.3 °C 1029.0 hPa Calm     93 % 0.0 mm 0 W/m2
22:00 -2.3 °C -3.3 °C 1029.0 hPa Calm     93 % 0.0 mm 0 W/m2
22:05 -2.4 °C -3.4 °C 1029.0 hPa Calm     93 % 0.0 mm 0 W/m2
22:10 -2.3 °C -3.3 °C 1029.0 hPa Calm     93 % 0.0 mm 0 W/m2
22:15 -2.2 °C -3.1 °C 1029.0 hPa Calm     93 % 0.0 mm 0 W/m2
22:20 -2.2 °C -3.1 °C 1029.0 hPa Calm     93 % 0.0 mm 0 W/m2
22:25 -2.3 °C -3.3 °C 1028.7 hPa Calm     93 % 0.0 mm 0 W/m2
22:30 -2.4 °C -3.4 °C 1028.7 hPa Calm     93 % 0.0 mm 0 W/m2
22:35 -2.4 °C -3.4 °C 1028.7 hPa Calm     93 % 0.0 mm 0 W/m2
22:40 -2.4 °C -3.4 °C 1028.7 hPa Calm   1.6 km/h 93 % 0.0 mm 0 W/m2
22:45 -2.4 °C -3.4 °C 1028.7 hPa Calm   1.6 km/h 93 % 0.0 mm 0 W/m2
22:50 -2.5 °C -3.5 °C 1028.7 hPa Calm   1.6 km/h 93 % 0.0 mm 0 W/m2
22:55 -2.6 °C -3.6 °C 1028.7 hPa Calm     93 % 0.0 mm 0 W/m2
23:00 -2.7 °C -3.7 °C 1028.7 hPa Calm     93 % 0.0 mm 0 W/m2
23:05 -2.8 °C -3.8 °C 1028.7 hPa Calm     93 % 0.0 mm 0 W/m2
23:10 -2.9 °C -3.9 °C 1028.7 hPa Calm     93 % 0.0 mm 0 W/m2
23:15 -2.8 °C -3.6 °C 1028.7 hPa Calm     94 % 0.0 mm 0 W/m2
23:20 -2.8 °C -3.8 °C 1028.7 hPa Calm     93 % 0.0 mm 0 W/m2
23:25 -2.9 °C -3.9 °C 1028.7 hPa Calm     93 % 0.0 mm 0 W/m2
23:30 -3.1 °C -4.1 °C 1028.7 hPa Calm     93 % 0.0 mm 0 W/m2
23:35 -3.2 °C -4.0 °C 1028.7 hPa Calm     94 % 0.0 mm 0 W/m2
23:40 -3.2 °C -4.0 °C 1028.7 hPa Calm     94 % 0.0 mm 0 W/m2
23:45 -2.9 °C -3.8 °C 1028.7 hPa Calm   1.6 km/h 94 % 0.0 mm 0 W/m2
23:50 -2.9 °C -3.8 °C 1028.7 hPa Calm   1.6 km/h 94 % 0.0 mm 0 W/m2
23:55 -2.9 °C -3.8 °C 1028.7 hPa Calm   1.6 km/h 94 % 0.0 mm 0 W/m2
Avec l'autorisation de Weather Underground - 1.75 mb